createdAt,value
2022-07-26T00:02:47.706Z,67.13
2022-07-26T00:07:50.128Z,68.27
2022-07-26T00:12:51.709Z,68.67
2022-07-26T00:17:53.313Z,67.25
2022-07-26T00:22:54.972Z,67.36
2022-07-26T00:27:56.773Z,65.87
2022-07-26T00:32:58.648Z,66.63
2022-07-26T00:38:00.343Z,65.80
2022-07-26T00:43:02.349Z,65.19
2022-07-26T00:48:04.321Z,65.53
2022-07-26T00:53:06.008Z,65.61
2022-07-26T00:58:07.651Z,64.35
2022-07-26T01:03:09.483Z,64.23
2022-07-26T01:08:11.103Z,62.83
2022-07-26T01:13:13.218Z,63.40
2022-07-26T01:18:15.319Z,62.95
2022-07-26T01:23:17.541Z,63.44
2022-07-26T01:28:20.163Z,64.23
2022-07-26T01:33:22.482Z,64.37
2022-07-26T01:38:24.057Z,66.17
2022-07-26T01:43:25.855Z,66.84
2022-07-26T01:48:30.160Z,68.62
2022-07-26T01:53:32.156Z,69.09
2022-07-26T01:58:33.797Z,69.53
2022-07-26T02:03:35.902Z,69.02
2022-07-26T02:08:37.544Z,69.87
2022-07-26T02:13:41.196Z,69.46
2022-07-26T02:18:43.072Z,69.81
2022-07-26T02:23:44.679Z,69.30
2022-07-26T02:28:46.277Z,69.19
2022-07-26T02:33:47.895Z,70.56
2022-07-26T02:38:49.495Z,68.82
2022-07-26T02:43:51.098Z,67.63
2022-07-26T02:48:52.739Z,68.91
2022-07-26T02:53:54.516Z,68.31
2022-07-26T02:58:56.261Z,68.47
2022-07-26T03:03:57.899Z,67.67
2022-07-26T03:09:00.233Z,67.74
2022-07-26T03:14:01.995Z,67.58
2022-07-26T03:19:03.792Z,67.41
2022-07-26T03:24:06.182Z,66.87
2022-07-26T03:29:08.003Z,66.07
2022-07-26T03:34:10.801Z,66.69
2022-07-26T03:39:12.861Z,65.95
2022-07-26T03:44:14.475Z,65.34
2022-07-26T03:49:17.248Z,64.89
2022-07-26T03:54:19.178Z,65.02
2022-07-26T03:59:20.975Z,64.85
2022-07-26T04:04:25.318Z,65.08
2022-07-26T04:09:27.119Z,64.26
2022-07-26T04:14:28.733Z,64.58
2022-07-26T04:19:30.447Z,64.31
2022-07-26T04:24:32.031Z,64.40
2022-07-26T04:29:33.710Z,64.41
2022-07-26T04:34:35.321Z,64.08
2022-07-26T04:39:36.950Z,64.17
2022-07-26T04:44:39.035Z,63.38
2022-07-26T04:49:40.601Z,63.42
2022-07-26T04:54:42.217Z,63.57
2022-07-26T04:59:43.858Z,64.16
2022-07-26T05:04:45.436Z,64.62
2022-07-26T05:09:47.073Z,63.54
2022-07-26T05:14:48.678Z,64.01
2022-07-26T05:19:53.420Z,63.72
2022-07-26T05:24:55.987Z,63.20
2022-07-26T05:29:57.580Z,62.90
2022-07-26T05:34:59.139Z,62.75
2022-07-26T05:40:00.731Z,62.82
2022-07-26T05:45:02.701Z,62.24
2022-07-26T05:50:05.644Z,62.75
2022-07-26T05:55:07.912Z,62.97
2022-07-26T06:00:10.520Z,61.62
2022-07-26T06:05:17.640Z,61.09
2022-07-26T06:10:19.280Z,60.84
2022-07-26T06:15:21.115Z,60.67
2022-07-26T06:20:23.065Z,59.81
2022-07-26T06:25:25.588Z,58.45
2022-07-26T06:30:27.285Z,57.04
2022-07-26T06:35:32.174Z,56.16
2022-07-26T06:40:34.259Z,54.91
2022-07-26T06:45:36.085Z,53.90
2022-07-26T06:50:37.940Z,53.36
2022-07-26T06:55:54.689Z,52.38
2022-07-26T07:00:56.520Z,51.58
2022-07-26T07:05:58.108Z,50.99
2022-07-26T07:10:59.810Z,50.76
2022-07-26T07:16:03.539Z,50.29
2022-07-26T07:21:05.262Z,50.62
2022-07-26T07:26:06.906Z,50.17
2022-07-26T07:31:09.031Z,49.11
2022-07-26T07:36:10.777Z,48.14
2022-07-26T07:41:12.399Z,48.07
2022-07-26T07:46:14.532Z,47.05
2022-07-26T07:51:16.310Z,46.39
2022-07-26T07:56:19.378Z,46.09
2022-07-26T08:01:23.542Z,46.39
2022-07-26T08:06:42.046Z,45.32
2022-07-26T08:11:52.118Z,45.08
2022-07-26T08:16:53.814Z,45.05
2022-07-26T08:21:55.508Z,45.40
2022-07-26T08:26:57.086Z,45.27
2022-07-26T08:31:58.847Z,46.30
2022-07-26T08:37:16.589Z,46.06
2022-07-26T08:42:23.041Z,46.45
2022-07-26T08:47:37.888Z,46.24
2022-07-26T08:52:42.429Z,46.46
2022-07-26T08:57:44.160Z,46.17
2022-07-26T09:02:46.238Z,45.79
2022-07-26T09:07:47.953Z,46.17
2022-07-26T09:12:58.309Z,45.49
2022-07-26T09:18:00.012Z,44.90
2022-07-26T09:23:09.625Z,44.91
2022-07-26T09:28:29.634Z,44.19
2022-07-26T09:33:50.288Z,43.60
2022-07-26T09:39:11.196Z,43.70
2022-07-26T09:44:24.308Z,43.55
2022-07-26T09:49:30.958Z,43.32
2022-07-26T09:54:42.572Z,42.33
2022-07-26T09:59:44.770Z,41.94
2022-07-26T10:04:46.503Z,42.36
2022-07-26T10:10:11.315Z,42.01
2022-07-26T10:15:35.583Z,40.97
2022-07-26T10:20:44.425Z,41.97
2022-07-26T10:25:47.710Z,40.31
2022-07-26T10:30:49.600Z,39.52
2022-07-26T10:35:51.217Z,40.96
2022-07-26T10:41:01.962Z,41.42
2022-07-26T10:46:15.838Z,39.77
2022-07-26T10:51:29.625Z,39.94
2022-07-26T10:56:33.696Z,39.58
2022-07-26T11:01:37.565Z,39.46
2022-07-26T11:06:40.037Z,38.53
2022-07-26T11:11:47.007Z,38.02
2022-07-26T11:16:52.795Z,37.63
2022-07-26T11:21:59.050Z,37.63
2022-07-26T11:27:04.322Z,37.50
2022-07-26T11:32:14.865Z,38.45
2022-07-26T11:37:18.799Z,39.89
2022-07-26T11:42:21.649Z,39.21
2022-07-26T11:47:25.731Z,38.46
2022-07-26T11:52:31.971Z,38.84
2022-07-26T11:57:33.988Z,38.21
2022-07-26T12:02:35.622Z,37.44
2022-07-26T12:07:37.228Z,37.03
2022-07-26T12:12:39.657Z,36.70
2022-07-26T12:17:58.667Z,38.03
2022-07-26T12:23:05.007Z,38.40
2022-07-26T12:28:07.674Z,37.23
2022-07-26T12:33:09.317Z,35.06
2022-07-26T12:38:10.979Z,35.98
2022-07-26T12:43:12.562Z,35.62
2022-07-26T12:48:14.373Z,34.54
2022-07-26T12:53:15.982Z,33.21
2022-07-26T12:58:17.581Z,33.52
2022-07-26T13:03:19.216Z,34.11
2022-07-26T13:08:20.906Z,35.08
2022-07-26T13:13:22.515Z,35.99
2022-07-26T13:18:24.099Z,37.31
2022-07-26T13:23:26.912Z,38.00
2022-07-26T13:28:28.621Z,37.77
2022-07-26T13:33:30.217Z,38.77
2022-07-26T13:38:33.661Z,38.65
2022-07-26T13:43:35.507Z,38.21
2022-07-26T13:48:37.201Z,38.54
2022-07-26T13:53:55.160Z,38.89
2022-07-26T13:58:57.289Z,39.16
2022-07-26T14:03:59.437Z,39.45
2022-07-26T14:09:02.043Z,39.76
2022-07-26T14:14:04.260Z,39.52
2022-07-26T14:19:06.410Z,39.31
2022-07-26T14:24:08.582Z,37.51
2022-07-26T14:29:10.392Z,37.42
2022-07-26T14:34:12.330Z,37.64
2022-07-26T14:39:14.181Z,37.43
2022-07-26T14:44:15.800Z,38.54
2022-07-26T14:49:17.628Z,38.86
2022-07-26T14:54:19.506Z,39.39
2022-07-26T14:59:21.152Z,39.88
2022-07-26T15:04:22.758Z,40.18
2022-07-26T15:09:24.385Z,40.19
2022-07-26T15:14:26.037Z,40.22
2022-07-26T15:19:27.697Z,40.74
2022-07-26T15:24:29.412Z,40.65
2022-07-26T15:29:33.272Z,40.43
2022-07-26T15:34:35.044Z,40.81
2022-07-26T15:39:36.713Z,41.01
2022-07-26T15:44:38.800Z,42.91
2022-07-26T15:49:40.885Z,44.26
2022-07-26T15:54:42.703Z,45.10
2022-07-26T15:59:44.511Z,45.79
2022-07-26T16:04:46.107Z,46.09
2022-07-26T16:09:48.792Z,46.87
2022-07-26T16:14:50.414Z,48.03
2022-07-26T16:19:52.260Z,47.49
2022-07-26T16:24:54.026Z,48.11
2022-07-26T16:29:55.805Z,48.03
2022-07-26T16:34:57.456Z,48.89
2022-07-26T16:39:59.193Z,48.85
2022-07-26T16:45:01.272Z,49.08
2022-07-26T16:50:03.647Z,49.16
2022-07-26T16:55:10.565Z,48.99
2022-07-26T17:00:12.996Z,49.60
2022-07-26T17:05:14.893Z,50.46
2022-07-26T17:10:16.473Z,50.05
2022-07-26T17:15:18.074Z,50.27
2022-07-26T17:20:19.975Z,50.01
2022-07-26T17:25:21.677Z,50.45
2022-07-26T17:30:23.350Z,49.64
2022-07-26T17:35:25.023Z,49.72
2022-07-26T17:40:26.819Z,49.78
2022-07-26T17:45:28.624Z,49.58
2022-07-26T17:50:38.603Z,49.04
2022-07-26T17:55:40.545Z,49.38
2022-07-26T18:00:42.221Z,49.95
2022-07-26T18:05:44.093Z,49.53
2022-07-26T18:10:50.916Z,49.98
2022-07-26T18:15:53.539Z,50.72
2022-07-26T18:20:55.318Z,51.26
2022-07-26T18:25:58.134Z,51.17
2022-07-26T18:30:59.826Z,50.79
2022-07-26T18:36:01.669Z,50.81
2022-07-26T18:41:03.493Z,50.46
2022-07-26T18:46:06.506Z,50.94
2022-07-26T18:51:08.213Z,50.91
2022-07-26T18:56:09.832Z,51.38
2022-07-26T19:01:11.696Z,52.51
2022-07-26T19:06:13.489Z,52.53
2022-07-26T19:11:15.206Z,52.54
2022-07-26T19:16:16.890Z,53.08
2022-07-26T19:21:18.692Z,53.36
2022-07-26T19:26:20.424Z,53.05
2022-07-26T19:31:22.445Z,53.65
2022-07-26T19:36:26.474Z,53.84
2022-07-26T19:41:28.308Z,53.39
2022-07-26T19:46:30.061Z,53.36
2022-07-26T19:51:32.167Z,53.61
2022-07-26T19:56:34.237Z,53.48
2022-07-26T20:01:35.892Z,53.61
2022-07-26T20:06:37.617Z,53.72
2022-07-26T20:11:39.921Z,53.82
2022-07-26T20:16:41.944Z,54.47
2022-07-26T20:21:44.355Z,54.78
2022-07-26T20:26:46.128Z,54.13
2022-07-26T20:31:47.846Z,54.69
2022-07-26T20:36:49.579Z,54.25
2022-07-26T20:41:51.428Z,54.53
2022-07-26T20:46:54.408Z,54.59
2022-07-26T20:51:56.031Z,54.64
2022-07-26T20:56:57.848Z,54.71
2022-07-26T21:01:59.551Z,55.03
2022-07-26T21:07:01.165Z,55.06
2022-07-26T21:12:03.136Z,55.25
2022-07-26T21:17:09.382Z,55.10
2022-07-26T21:22:13.056Z,54.67
2022-07-26T21:27:15.181Z,54.47
2022-07-26T21:32:16.908Z,54.62
2022-07-26T21:37:18.653Z,55.29
2022-07-26T21:42:20.286Z,55.67
2022-07-26T21:47:22.023Z,55.75
2022-07-26T21:52:23.668Z,55.91
2022-07-26T21:57:25.310Z,55.18
2022-07-26T22:02:27.081Z,55.75
2022-07-26T22:07:28.660Z,55.91
2022-07-26T22:12:30.772Z,56.32
2022-07-26T22:17:32.369Z,56.07
2022-07-26T22:22:35.234Z,55.78
2022-07-26T22:27:36.888Z,56.09
2022-07-26T22:32:38.646Z,55.58
2022-07-26T22:37:40.359Z,55.71
2022-07-26T22:42:44.529Z,56.60
2022-07-26T22:47:55.611Z,56.33
2022-07-26T22:52:58.405Z,56.64
2022-07-26T22:58:00.510Z,56.91
2022-07-26T23:03:02.375Z,56.28
2022-07-26T23:08:14.080Z,56.70
2022-07-26T23:13:26.531Z,57.31
2022-07-26T23:18:29.353Z,57.09
2022-07-26T23:23:30.990Z,57.00
2022-07-26T23:28:37.329Z,57.46
2022-07-26T23:33:52.594Z,57.78
2022-07-26T23:38:57.611Z,58.08
2022-07-26T23:43:59.303Z,58.74
2022-07-26T23:49:00.984Z,58.69
2022-07-26T23:54:02.628Z,58.31
2022-07-26T23:59:04.610Z,58.62
